Time;durP1;ratioP1;P1;durP2;ratioP2;P2;SDS_P1;SDS_P2;PMS_P1;PMS_P2;Temp;Humidity;BMP_temperature;BMP_pressure;BME280_temperature;BME280_humidity;BME280_pressure;Samples;Min_cycle;Max_cycle;Signal;HPM_P1;HPM_P2
2021/10/17 00:00:55;;;;;;;;;7.00;6.67;;;;;18.67;49.65;101696.44;4978845;28;45523;-58
2021/10/17 00:03:21;;;;;;;;;10.33;8.67;;;;;18.68;49.76;101698.19;4978276;28;45342;-58
2021/10/17 00:05:46;;;;;;;;;10.00;7.33;;;;;18.67;49.61;101693.78;4978724;28;45520;-58
2021/10/17 00:08:11;;;;;;;;;8.00;8.00;;;;;18.68;49.30;101702.63;4978402;28;47345;-59
2021/10/17 00:10:38;;;;;;;;;7.00;7.00;;;;;18.68;49.82;101694.66;4978413;28;45400;-58
2021/10/17 00:13:06;;;;;;;;;7.67;6.67;;;;;18.67;49.66;101693.78;4978435;28;45333;-58
2021/10/17 00:15:33;;;;;;;;;5.67;5.67;;;;;18.68;49.61;101694.66;4978959;28;45262;-58
2021/10/17 00:18:01;;;;;;;;;7.67;7.00;;;;;18.68;49.71;101691.97;4978085;28;46466;-61
2021/10/17 00:20:27;;;;;;;;;7.00;7.00;;;;;18.67;49.44;101691.13;4978227;28;45542;-61
2021/10/17 00:22:52;;;;;;;;;6.33;6.33;;;;;18.67;49.28;101682.22;4978217;28;45386;-59
2021/10/17 00:25:19;;;;;;;;;10.33;7.67;;;;;18.67;49.34;101685.78;4978585;28;45305;-60
2021/10/17 00:27:45;;;;;;;;;6.33;6.33;;;;;18.67;49.33;101683.13;4978328;28;46173;-58
2021/10/17 00:30:11;;;;;;;;;6.67;6.67;;;;;18.67;49.28;101690.22;4978072;28;45330;-61
2021/10/17 00:32:37;;;;;;;;;5.67;5.67;;;;;18.67;49.42;101682.22;4960801;28;45366;-58
2021/10/17 00:35:08;;;;;;;;;7.00;6.00;;;;;18.67;49.57;101691.13;4978260;28;45377;-57
2021/10/17 00:37:34;;;;;;;;;7.67;6.67;;;;;18.66;49.30;101684.00;4977851;28;47221;-57
2021/10/17 00:40:02;;;;;;;;;7.00;6.33;;;;;18.68;49.34;101686.66;4977995;28;45786;-59
2021/10/17 00:42:27;;;;;;;;;6.67;6.67;;;;;18.67;49.38;101691.13;4978258;28;45384;-58
2021/10/17 00:44:56;;;;;;;;;5.00;5.00;;;;;18.67;49.13;101687.56;4978100;28;45286;-57
2021/10/17 00:47:22;;;;;;;;;9.67;5.67;;;;;18.67;49.20;101695.53;4977956;28;46149;-59
2021/10/17 00:49:48;;;;;;;;;9.33;7.33;;;;;18.67;49.21;101698.22;4977585;28;45449;-58
2021/10/17 00:52:14;;;;;;;;;9.33;8.33;;;;;18.66;49.35;101691.09;4977776;28;45435;-58
2021/10/17 00:54:42;;;;;;;;;7.33;5.67;;;;;18.66;49.11;101689.31;4977922;28;45436;-59
2021/10/17 00:57:07;;;;;;;;;8.67;7.33;;;;;18.66;49.37;101686.66;4977611;28;47237;-58
2021/10/17 00:59:33;;;;;;;;;7.67;7.00;;;;;18.66;49.37;101683.09;4977656;28;45267;-57
2021/10/17 01:01:58;;;;;;;;;7.00;6.67;;;;;18.67;49.51;101679.56;4977911;28;45805;-58
2021/10/17 01:04:24;;;;;;;;;11.00;7.33;;;;;18.66;49.09;101676.00;4978045;28;45463;-57
2021/10/17 01:06:49;;;;;;;;;6.00;6.00;;;;;18.67;49.40;101679.56;4977730;28;46259;-58
2021/10/17 01:09:14;;;;;;;;;6.33;6.33;;;;;18.66;49.12;101675.13;4976701;28;45427;-59
2021/10/17 01:11:45;;;;;;;;;6.67;6.33;;;;;18.67;48.98;101676.91;4978104;28;46383;-59
2021/10/17 01:14:19;;;;;;;;;8.00;8.00;;;;;18.66;48.91;101680.44;4977991;28;45164;-59
2021/10/17 01:16:46;;;;;;;;;8.33;7.33;;;;;18.66;49.09;101678.69;4977386;28;46285;-58
2021/10/17 01:19:12;;;;;;;;;8.33;7.67;;;;;18.66;48.96;101675.13;4977184;28;45310;-58
2021/10/17 01:21:39;;;;;;;;;8.33;7.33;;;;;18.66;49.25;101672.44;4977500;28;45581;-58
2021/10/17 01:24:06;;;;;;;;;7.00;6.67;;;;;18.66;48.92;101672.44;4977868;28;45267;-59
2021/10/17 01:26:32;;;;;;;;;8.67;8.00;;;;;18.66;49.24;101667.13;4977259;28;47006;-59
2021/10/17 01:28:57;;;;;;;;;5.67;5.67;;;;;18.66;49.14;101668.03;4977312;28;45369;-58
2021/10/17 01:31:37;;;;;;;;;7.00;6.33;;;;;18.66;49.29;101661.81;4977400;28;45225;-59
2021/10/17 01:34:04;;;;;;;;;8.00;6.00;;;;;18.66;49.13;101669.78;4977459;28;45443;-58
2021/10/17 01:36:29;;;;;;;;;8.33;8.33;;;;;18.65;49.00;101673.34;4976915;28;46387;-59
2021/10/17 01:38:56;;;;;;;;;8.33;7.67;;;;;18.66;49.13;101672.44;4977099;28;45294;-58
2021/10/17 01:41:21;;;;;;;;;8.33;8.00;;;;;18.66;48.89;101672.44;4977406;28;45313;-58
2021/10/17 01:43:47;;;;;;;;;10.67;8.33;;;;;18.65;48.84;101668.03;4977746;28;45313;-59
2021/10/17 01:46:12;;;;;;;;;8.33;8.33;;;;;18.66;49.11;101667.13;4976806;28;45919;-60
2021/10/17 01:48:37;;;;;;;;;9.67;8.00;;;;;18.65;48.92;101670.69;4976841;28;45507;-58
2021/10/17 01:51:03;;;;;;;;;10.00;7.00;;;;;18.64;48.86;101675.13;4977157;28;45309;-59
2021/10/17 01:53:29;;;;;;;;;11.00;7.33;;;;;18.65;49.02;101670.69;4977132;28;45432;-58
2021/10/17 01:56:00;;;;;;;;;6.00;6.00;;;;;18.65;48.92;101665.38;4977097;28;47185;-59
2021/10/17 01:58:26;;;;;;;;;10.67;8.67;;;;;18.63;48.81;101666.25;4976661;28;45326;-59
2021/10/17 02:00:52;;;;;;;;;10.33;9.33;;;;;18.63;48.85;101663.59;4977113;28;45833;-58
2021/10/17 02:03:17;;;;;;;;;9.00;8.00;;;;;18.65;48.88;101665.38;4977156;28;45306;-59
2021/10/17 02:05:43;;;;;;;;;8.67;6.67;;;;;18.63;48.93;101665.38;4976615;28;46087;-59
2021/10/17 02:08:08;;;;;;;;;8.00;7.00;;;;;18.63;49.09;101668.91;4976855;28;45448;-59
2021/10/17 02:10:33;;;;;;;;;8.33;7.00;;;;;18.64;48.89;101669.81;4976770;28;45458;-59
2021/10/17 02:12:59;;;;;;;;;9.00;7.33;;;;;18.63;48.82;101666.25;4977186;28;45596;-59
2021/10/17 02:15:25;;;;;;;;;10.00;8.00;;;;;18.63;48.96;101658.25;4976782;28;46119;-58
2021/10/17 02:17:50;;;;;;;;;9.00;9.00;;;;;18.63;48.74;101654.72;4976916;28;45248;-60
2021/10/17 02:20:15;;;;;;;;;8.33;7.00;;;;;18.63;48.63;101658.25;4977374;28;45310;-59
2021/10/17 02:22:41;;;;;;;;;6.00;6.00;;;;;18.62;48.79;101656.50;4980241;28;45282;-58
2021/10/17 02:25:07;;;;;;;;;10.67;8.67;;;;;18.62;48.85;101658.25;4980014;28;46256;-59
2021/10/17 02:27:32;;;;;;;;;8.33;7.00;;;;;18.63;48.70;101662.72;4980064;28;45219;-58
2021/10/17 02:29:58;;;;;;;;;10.00;8.00;;;;;18.63;48.53;101665.38;4980165;28;45265;-59
2021/10/17 02:32:23;;;;;;;;;6.33;6.33;;;;;18.63;48.84;101658.25;4980489;28;45156;-58
2021/10/17 02:34:49;;;;;;;;;11.67;9.67;;;;;18.62;49.01;101658.25;4979753;28;47077;-58
2021/10/17 02:37:14;;;;;;;;;11.33;10.33;;;;;18.62;48.59;101659.16;4979895;28;45407;-58
2021/10/17 02:39:39;;;;;;;;;8.33;8.33;;;;;18.63;48.88;101662.72;4979850;28;45847;-59
2021/10/17 02:42:05;;;;;;;;;8.00;7.33;;;;;18.61;48.63;101660.03;4980109;28;45437;-58
2021/10/17 02:44:30;;;;;;;;;8.00;7.33;;;;;18.63;48.74;101668.03;4979619;28;47002;-58
2021/10/17 02:46:57;;;;;;;;;6.67;6.67;;;;;18.62;48.71;101661.81;4979804;28;45440;-59
2021/10/17 02:49:23;;;;;;;;;8.00;6.67;;;;;18.61;48.29;101657.38;4979669;28;45389;-60
2021/10/17 02:51:49;;;;;;;;;11.33;11.33;;;;;18.61;48.85;101654.72;4979958;28;45401;-58
2021/10/17 02:54:15;;;;;;;;;8.67;8.67;;;;;18.62;48.76;101644.94;4979436;28;46098;-58
2021/10/17 02:56:40;;;;;;;;;7.67;7.67;;;;;18.61;48.56;101646.72;4979461;28;45317;-58
2021/10/17 02:59:06;;;;;;;;;9.00;6.67;;;;;18.62;48.72;101642.28;4979597;28;45271;-58
2021/10/17 03:01:31;;;;;;;;;7.33;7.33;;;;;18.61;48.46;101648.53;4979897;28;45509;-58
2021/10/17 03:03:56;;;;;;;;;9.33;8.33;;;;;18.61;48.75;101645.84;4979323;28;46283;-58
2021/10/17 03:06:26;;;;;;;;;8.00;8.00;;;;;18.61;48.50;101646.72;4979505;28;45349;-59
2021/10/17 03:08:51;;;;;;;;;8.00;8.00;;;;;18.61;48.75;101648.53;4979454;28;45383;-59
2021/10/17 03:11:16;;;;;;;;;7.33;7.00;;;;;18.62;48.59;101653.84;4979749;28;45511;-58
2021/10/17 03:13:42;;;;;;;;;10.67;9.00;;;;;18.61;48.76;101654.72;4979462;28;46167;-57
2021/10/17 03:16:07;;;;;;;;;10.00;10.00;;;;;18.60;48.79;101647.63;4979486;28;45316;-58
2021/10/17 03:18:33;;;;;;;;;9.00;8.00;;;;;18.60;48.77;101647.63;4979435;28;45352;-58
2021/10/17 03:20:58;;;;;;;;;10.00;8.33;;;;;18.61;48.85;101653.84;4979406;28;45817;-58
2021/10/17 03:23:24;;;;;;;;;7.00;7.00;;;;;18.60;48.65;101652.94;4979172;28;46825;-59
2021/10/17 03:25:49;;;;;;;;;7.33;7.33;;;;;18.61;48.61;101648.53;4979172;28;45389;-59
2021/10/17 03:28:14;;;;;;;;;10.00;8.67;;;;;18.60;48.47;101644.97;4979418;28;45450;-58
2021/10/17 03:30:40;;;;;;;;;10.00;7.67;;;;;18.61;48.72;101645.84;4979396;28;45358;-59
2021/10/17 03:33:05;;;;;;;;;11.00;8.33;;;;;18.60;48.51;101644.97;4978024;28;47289;-59
2021/10/17 03:35:31;;;;;;;;;8.33;6.33;;;;;18.60;48.64;101642.28;4979311;28;45366;-59
2021/10/17 03:37:56;;;;;;;;;8.67;8.67;;;;;18.60;48.52;101636.06;4979066;28;45461;-58
2021/10/17 03:40:21;;;;;;;;;10.67;9.33;;;;;18.59;48.42;101629.84;4979053;28;45302;-58
2021/10/17 03:42:47;;;;;;;;;9.33;9.33;;;;;18.59;48.32;101621.00;4978932;28;46151;-59
2021/10/17 03:45:12;;;;;;;;;12.00;10.00;;;;;18.60;48.57;101631.66;4978932;28;45310;-58
2021/10/17 03:47:37;;;;;;;;;7.33;7.00;;;;;18.58;48.77;101625.44;4979094;28;45306;-58
2021/10/17 03:50:03;;;;;;;;;10.00;6.67;;;;;18.59;48.70;101621.88;4978853;28;45360;-59
2021/10/17 03:52:29;;;;;;;;;10.33;8.33;;;;;18.59;48.47;101621.00;4978706;28;47001;-58
2021/10/17 03:54:54;;;;;;;;;9.67;8.33;;;;;18.59;48.57;101624.53;4978489;28;45349;-59
2021/10/17 03:57:19;;;;;;;;;10.33;8.67;;;;;18.59;48.71;101624.53;4978971;28;45413;-58
2021/10/17 03:59:45;;;;;;;;;8.00;7.33;;;;;18.60;48.68;101631.66;4979028;28;45148;-58
2021/10/17 04:02:10;;;;;;;;;10.33;8.00;;;;;18.59;48.47;101623.66;4978548;28;45967;-58
2021/10/17 04:04:36;;;;;;;;;7.00;6.67;;;;;18.59;48.45;101624.53;4978659;28;45397;-59
2021/10/17 04:07:01;;;;;;;;;8.00;7.67;;;;;18.58;48.53;101628.09;4978742;28;45504;-58
2021/10/17 04:09:26;;;;;;;;;7.00;7.00;;;;;18.57;48.49;101621.00;4978826;28;45558;-59
2021/10/17 04:11:52;;;;;;;;;8.00;8.00;;;;;18.58;48.62;101620.13;4978339;28;46890;-58
2021/10/17 04:14:17;;;;;;;;;6.67;6.00;;;;;18.57;48.57;101618.31;4978529;28;45385;-58
2021/10/17 04:16:42;;;;;;;;;7.00;7.00;;;;;18.58;48.63;101620.13;4978625;28;45406;-58
2021/10/17 04:19:08;;;;;;;;;10.00;10.00;;;;;18.57;48.43;101621.00;4978501;28;45440;-58
2021/10/17 04:21:33;;;;;;;;;8.33;7.00;;;;;18.58;48.50;101620.13;4978431;28;46903;-58
2021/10/17 04:23:58;;;;;;;;;7.33;7.33;;;;;18.57;48.48;101621.00;4978233;28;45418;-58
2021/10/17 04:26:24;;;;;;;;;7.33;7.33;;;;;18.58;48.48;101622.78;4960962;28;45378;-58
2021/10/17 04:28:49;;;;;;;;;7.33;7.33;;;;;18.58;48.39;101628.09;4978595;28;45409;-58
2021/10/17 04:31:15;;;;;;;;;8.67;7.00;;;;;18.57;48.30;101625.44;4977991;28;47237;-59
2021/10/17 04:33:40;;;;;;;;;8.00;8.00;;;;;18.57;48.22;101625.44;4978290;28;45337;-59
2021/10/17 04:36:06;;;;;;;;;9.33;6.67;;;;;18.57;48.13;101630.78;4978236;28;45199;-59
2021/10/17 04:38:32;;;;;;;;;11.67;9.67;;;;;18.56;48.20;101629.88;4978533;28;45464;-58
2021/10/17 04:40:58;;;;;;;;;8.33;8.33;;;;;18.57;48.13;101634.31;4977990;28;46900;-58
2021/10/17 04:43:23;;;;;;;;;10.33;10.33;;;;;18.56;48.25;101613.91;4977791;28;45430;-58
2021/10/17 04:45:49;;;;;;;;;12.67;9.33;;;;;18.56;48.37;101621.00;4978218;28;45262;-58
2021/10/17 04:48:14;;;;;;;;;9.67;8.67;;;;;18.55;48.24;101622.75;4977636;28;45163;-58
2021/10/17 04:50:40;;;;;;;;;9.33;6.67;;;;;18.55;48.30;101621.91;4978050;28;46214;-58
2021/10/17 04:53:05;;;;;;;;;11.67;9.67;;;;;18.56;48.47;101629.00;4978052;28;45687;-58
2021/10/17 04:55:31;;;;;;;;;10.33;9.00;;;;;18.56;48.36;101636.97;4978075;28;45281;-57
2021/10/17 04:57:57;;;;;;;;;7.67;7.67;;;;;18.55;48.50;101636.06;4978007;28;45338;-58
2021/10/17 05:00:22;;;;;;;;;8.33;7.67;;;;;18.54;48.06;101631.66;4977425;28;46120;-59
2021/10/17 05:02:48;;;;;;;;;7.67;7.67;;;;;18.55;48.31;101633.41;4977742;28;45334;-61
2021/10/17 05:05:13;;;;;;;;;9.33;9.33;;;;;18.55;48.26;101636.06;4977854;28;45556;-60
2021/10/17 05:07:39;;;;;;;;;10.33;10.33;;;;;18.54;48.26;101629.00;4978069;28;45391;-60
2021/10/17 05:10:05;;;;;;;;;9.67;8.00;;;;;18.54;48.48;101626.34;4977553;28;47194;-58
2021/10/17 05:12:30;;;;;;;;;8.67;8.00;;;;;18.54;48.30;101623.66;4977512;28;45508;-58
2021/10/17 05:14:56;;;;;;;;;6.67;6.67;;;;;18.54;48.36;101631.66;4977693;28;45226;-59
2021/10/17 05:17:21;;;;;;;;;10.00;8.67;;;;;18.54;48.29;101631.66;4977758;28;45522;-58
2021/10/17 05:19:47;;;;;;;;;7.33;7.33;;;;;18.54;48.08;101634.31;4977683;28;45656;-58
2021/10/17 05:22:12;;;;;;;;;6.67;6.67;;;;;18.54;48.27;101633.44;4977327;28;45388;-58
2021/10/17 05:24:37;;;;;;;;;7.67;7.67;;;;;18.53;48.03;101632.53;4977521;28;45873;-60
2021/10/17 05:27:03;;;;;;;;;8.67;8.67;;;;;18.52;48.15;101629.00;4977587;28;45246;-59
2021/10/17 05:29:28;;;;;;;;;8.33;7.33;;;;;18.52;48.35;101628.13;4977145;28;47281;-59
2021/10/17 05:31:54;;;;;;;;;10.67;9.33;;;;;18.53;47.98;101629.88;4977243;28;45342;-59
2021/10/17 05:34:19;;;;;;;;;9.67;7.33;;;;;18.54;47.86;101633.44;4977347;28;45705;-59
2021/10/17 05:36:44;;;;;;;;;9.00;8.00;;;;;18.52;48.18;101639.66;4977636;28;45332;-59
2021/10/17 05:39:10;;;;;;;;;8.00;8.00;;;;;18.52;48.13;101638.75;4977112;28;46485;-59
2021/10/17 05:41:36;;;;;;;;;7.67;6.33;;;;;18.52;48.02;101633.44;4977227;28;45513;-60
2021/10/17 05:44:02;;;;;;;;;8.33;8.33;;;;;18.53;48.13;101635.19;4977256;28;45439;-60
2021/10/17 05:46:27;;;;;;;;;8.00;8.00;;;;;18.52;48.24;101649.41;4977311;28;45396;-59
2021/10/17 05:48:53;;;;;;;;;9.00;7.67;;;;;18.52;48.12;101644.09;4976792;28;46074;-60
2021/10/17 05:51:18;;;;;;;;;9.00;8.00;;;;;18.52;48.02;101638.75;4977263;28;45456;-58
2021/10/17 05:53:43;;;;;;;;;9.33;8.00;;;;;18.52;48.12;101641.41;4977174;28;45360;-59
2021/10/17 05:56:09;;;;;;;;;7.00;7.00;;;;;18.51;47.96;101637.88;4981675;28;45309;-59
2021/10/17 05:58:34;;;;;;;;;10.00;9.33;;;;;18.50;47.84;101635.22;4983124;28;47000;-58
2021/10/17 06:00:59;;;;;;;;;9.67;8.00;;;;;18.51;47.79;101637.88;4983456;28;45416;-59
2021/10/17 06:03:25;;;;;;;;;11.00;8.00;;;;;18.51;48.22;101639.63;4983624;28;45477;-59
2021/10/17 06:05:50;;;;;;;;;8.33;7.67;;;;;18.50;48.22;101641.44;4983731;28;45531;-58
2021/10/17 06:08:15;;;;;;;;;9.33;9.33;;;;;18.50;48.13;101646.75;4965828;28;47002;-59
2021/10/17 06:10:41;;;;;;;;;8.67;8.33;;;;;18.51;48.11;101647.63;4983514;28;45377;-59
2021/10/17 06:13:07;;;;;;;;;8.33;8.33;;;;;18.51;47.98;101650.28;4983640;28;45341;-58
2021/10/17 06:15:32;;;;;;;;;11.33;10.00;;;;;18.51;48.00;101650.28;4983482;28;45345;-58
2021/10/17 06:17:58;;;;;;;;;10.67;8.00;;;;;18.50;47.83;101652.09;4983313;28;46022;-59
2021/10/17 06:20:23;;;;;;;;;8.67;7.00;;;;;18.50;47.95;101659.19;4983215;28;45346;-59
2021/10/17 06:22:48;;;;;;;;;8.00;8.00;;;;;18.48;47.79;101647.66;4983449;28;45605;-59
2021/10/17 06:25:14;;;;;;;;;10.00;8.67;;;;;18.50;48.03;101656.50;4983497;28;45618;-58
2021/10/17 06:27:40;;;;;;;;;11.00;8.33;;;;;18.49;48.04;101662.72;4983108;28;46416;-60
2021/10/17 06:30:05;;;;;;;;;7.33;7.33;;;;;18.49;47.77;101663.59;4983139;28;45546;-58
2021/10/17 06:32:31;;;;;;;;;9.67;9.67;;;;;18.49;48.00;101665.38;4983223;28;45408;-59
2021/10/17 06:34:56;;;;;;;;;10.33;8.33;;;;;18.48;47.97;101664.50;4983111;28;45322;-58
2021/10/17 06:37:21;;;;;;;;;8.00;8.00;;;;;18.48;47.93;101672.50;4982884;28;46829;-59
2021/10/17 06:39:47;;;;;;;;;9.67;9.67;;;;;18.47;47.71;101673.38;4983254;28;45388;-59
2021/10/17 06:42:14;;;;;;;;;7.67;7.67;;;;;18.48;47.82;101668.94;4983305;28;45551;-59
2021/10/17 06:44:39;;;;;;;;;9.00;9.00;;;;;18.48;47.54;101680.47;4949554;28;45543;-58
2021/10/17 06:47:05;;;;;;;;;9.00;8.00;;;;;18.49;47.94;101686.66;4982746;28;45661;-59
2021/10/17 06:49:30;;;;;;;;;9.67;9.67;;;;;18.48;47.77;101692.91;4982720;28;45353;-59
2021/10/17 06:51:56;;;;;;;;;7.33;7.33;;;;;18.48;47.55;101690.25;4982971;28;45538;-59
2021/10/17 06:54:21;;;;;;;;;11.67;9.00;;;;;18.48;47.99;101691.13;4983228;28;45159;-59
2021/10/17 06:56:50;;;;;;;;;8.67;8.33;;;;;18.47;47.88;101688.44;4982818;28;46018;-58
2021/10/17 06:59:15;;;;;;;;;10.00;9.33;;;;;18.48;47.58;101692.91;4982936;28;45486;-58
2021/10/17 07:01:40;;;;;;;;;9.00;9.00;;;;;18.47;47.87;101689.34;4982940;28;45589;-58
2021/10/17 07:04:06;;;;;;;;;11.00;9.00;;;;;18.48;47.88;101700.88;4983047;28;45670;-59
2021/10/17 07:06:31;;;;;;;;;11.67;8.67;;;;;18.47;47.69;101707.97;4981183;28;47031;-58
2021/10/17 07:08:57;;;;;;;;;12.33;8.33;;;;;18.47;47.70;101704.41;4978781;28;45675;-59
2021/10/17 07:11:22;;;;;;;;;9.00;8.00;;;;;18.47;47.69;101709.75;4979639;28;45398;-60
2021/10/17 07:13:48;;;;;;;;;10.33;8.67;;;;;18.47;47.85;101704.41;4979880;28;45392;-60
2021/10/17 07:16:13;;;;;;;;;12.67;10.33;;;;;18.46;47.71;101700.91;4978569;28;46193;-59
2021/10/17 07:18:39;;;;;;;;;9.33;9.33;;;;;18.46;47.53;101700.00;4979311;28;45319;-58
2021/10/17 07:21:04;;;;;;;;;9.00;9.00;;;;;18.46;47.68;101697.34;4979241;28;45397;-58
2021/10/17 07:23:29;;;;;;;;;10.67;9.00;;;;;18.45;47.78;101696.44;4979850;28;45369;-57
2021/10/17 07:25:55;;;;;;;;;10.00;8.33;;;;;18.45;47.37;101701.78;4979042;28;45414;-57
2021/10/17 07:28:20;;;;;;;;;9.00;9.00;;;;;18.43;47.54;101700.88;4979429;28;45405;-58
2021/10/17 07:30:46;;;;;;;;;10.67;9.33;;;;;18.45;47.48;101700.88;4979415;28;45259;-58
2021/10/17 07:33:11;;;;;;;;;13.67;11.33;;;;;18.45;47.32;101706.19;4979225;28;45175;-58
2021/10/17 07:35:37;;;;;;;;;22.67;20.00;;;;;18.42;45.28;101703.56;4978907;28;47192;-58
2021/10/17 07:38:03;;;;;;;;;20.00;19.00;;;;;18.27;44.76;101706.19;4978889;28;45442;-57
2021/10/17 07:40:28;;;;;;;;;19.00;18.00;;;;;18.14;44.55;101705.28;4978902;28;45351;-58
2021/10/17 07:42:54;;;;;;;;;16.33;13.00;;;;;18.09;45.36;101709.69;4979324;28;45199;-57
2021/10/17 07:45:19;;;;;;;;;14.00;14.00;;;;;18.10;45.17;101710.59;4978356;28;45333;-57
2021/10/17 07:47:45;;;;;;;;;14.33;12.67;;;;;18.11;45.47;101707.91;4978966;28;45411;-57
2021/10/17 07:50:10;;;;;;;;;14.00;13.33;;;;;18.13;45.68;101710.56;4977720;28;45565;-57
2021/10/17 07:52:39;;;;;;;;;15.67;12.33;;;;;18.14;45.30;101710.59;4979256;28;45647;-57
2021/10/17 07:55:06;;;;;;;;;12.67;11.67;;;;;18.15;45.40;101712.34;4978632;28;46212;-58
2021/10/17 07:57:50;;;;;;;;;14.33;11.33;;;;;18.19;45.76;101715.06;4978479;28;45526;-57
2021/10/17 08:00:18;;;;;;;;;13.33;12.00;;;;;18.19;45.97;101704.44;4978378;28;45222;-62
2021/10/17 08:02:43;;;;;;;;;14.67;14.33;;;;;18.22;46.19;101707.06;4978771;28;45300;-59
2021/10/17 08:05:08;;;;;;;;;16.00;13.67;;;;;18.23;45.95;101709.72;4978432;28;46235;-57
2021/10/17 08:07:34;;;;;;;;;15.00;15.00;;;;;18.24;45.98;101707.97;4978664;28;45365;-61
2021/10/17 08:10:00;;;;;;;;;13.33;13.00;;;;;18.25;45.96;101699.09;4978574;28;45227;-61
2021/10/17 08:12:26;;;;;;;;;13.00;12.33;;;;;18.25;46.12;101707.97;4978783;28;45392;-58
2021/10/17 08:14:51;;;;;;;;;17.33;14.00;;;;;18.27;46.18;101707.97;4978370;28;46949;-58
2021/10/17 08:17:17;;;;;;;;;15.33;14.00;;;;;18.27;46.16;101711.50;4978108;28;45411;-61
2021/10/17 08:19:42;;;;;;;;;13.00;13.00;;;;;18.27;46.23;101705.31;4978100;28;45993;-58
2021/10/17 08:22:07;;;;;;;;;12.00;12.00;;;;;18.28;46.12;101712.41;4978521;28;45318;-58
2021/10/17 08:24:33;;;;;;;;;20.00;15.00;;;;;18.29;46.00;101714.19;4978428;28;46195;-59
2021/10/17 08:26:58;;;;;;;;;15.00;14.00;;;;;18.29;46.26;101716.84;4978266;28;45509;-62
2021/10/17 08:29:23;;;;;;;;;13.67;11.67;;;;;18.29;46.33;101711.53;4978373;28;45284;-60
2021/10/17 08:31:49;;;;;;;;;10.67;8.67;;;;;18.29;46.22;101708.88;4978547;28;45568;-59
2021/10/17 08:34:14;;;;;;;;;10.67;9.67;;;;;18.30;46.22;101704.44;4977808;28;45780;-60
2021/10/17 08:36:40;;;;;;;;;14.67;13.00;;;;;18.30;46.31;101696.47;4978139;28;45317;-64
2021/10/17 08:39:05;;;;;;;;;10.00;10.00;;;;;18.30;46.25;101699.97;4977990;28;45358;-60
2021/10/17 08:41:31;;;;;;;;;12.33;12.00;;;;;18.30;46.68;101694.66;4978588;28;45443;-59
2021/10/17 08:43:56;;;;;;;;;10.00;9.00;;;;;18.30;46.55;101699.13;4977772;28;45310;-61
2021/10/17 08:46:22;;;;;;;;;14.33;10.67;;;;;18.29;46.30;101690.25;4960326;28;45326;-59
2021/10/17 08:48:55;;;;;;;;;13.00;11.00;;;;;18.30;46.71;101696.47;4977945;28;45437;-58
2021/10/17 08:51:23;;;;;;;;;9.00;9.00;;;;;18.30;46.36;101696.47;4978167;28;45515;-58
2021/10/17 08:53:48;;;;;;;;;10.00;9.67;;;;;18.30;46.71;101702.66;4977854;28;46257;-65
2021/10/17 08:56:14;;;;;;;;;10.67;10.33;;;;;18.31;46.40;101701.78;4977641;28;45328;-62
2021/10/17 08:58:40;;;;;;;;;11.33;9.00;;;;;18.30;46.43;101702.66;4977573;28;45405;-66
2021/10/17 09:01:11;;;;;;;;;12.67;11.33;;;;;18.30;46.75;101702.66;4977807;28;45314;-62
2021/10/17 09:03:36;;;;;;;;;12.00;9.67;;;;;18.31;46.71;101708.88;4977531;28;45467;-65
2021/10/17 09:06:19;;;;;;;;;8.33;8.00;;;;;18.31;46.41;101708.88;4977439;28;45364;-64
2021/10/17 09:08:45;;;;;;;;;9.67;8.33;;;;;18.30;46.81;101705.31;4977549;28;45399;-61
2021/10/17 09:11:11;;;;;;;;;10.00;8.67;;;;;18.31;46.52;101708.88;4977735;28;45409;-60
2021/10/17 09:14:07;;;;;;;;;11.67;9.00;;;;;18.31;46.58;101712.41;4977211;28;46414;-57
2021/10/17 09:16:37;;;;;;;;;9.67;9.67;;;;;18.31;46.80;101706.19;4977258;28;45311;-60
2021/10/17 09:19:20;;;;;;;;;9.00;9.00;;;;;18.31;46.67;101709.75;4977265;28;45396;-62
2021/10/17 09:22:28;;;;;;;;;8.67;8.33;;;;;18.30;46.84;101702.66;4938918;28;45401;-60
2021/10/17 09:24:53;;;;;;;;;11.00;10.67;;;;;18.30;46.95;101707.09;4879202;29;45731;-61
2021/10/17 09:27:21;;;;;;;;;8.33;8.33;;;;;18.30;46.94;101707.97;4879133;29;45368;-60
2021/10/17 09:29:55;;;;;;;;;7.67;7.67;;;;;18.30;46.89;101705.31;4878889;29;45471;-61
2021/10/17 09:32:28;;;;;;;;;11.00;8.00;;;;;18.29;46.93;101692.91;4879606;29;45467;-59
2021/10/17 09:35:01;;;;;;;;;10.33;9.33;;;;;18.30;46.97;101696.47;4878866;29;45568;-59
2021/10/17 09:37:31;;;;;;;;;10.67;7.67;;;;;18.29;46.95;101695.56;4878908;29;45479;-66
2021/10/17 09:40:01;;;;;;;;;10.33;8.00;;;;;18.30;46.83;101696.47;4879044;29;45476;-59
2021/10/17 09:42:27;;;;;;;;;10.00;8.00;;;;;18.29;47.11;101690.25;4879122;29;45437;-62
2021/10/17 09:44:52;;;;;;;;;10.00;9.00;;;;;18.29;46.80;101695.56;4879026;29;46896;-63
2021/10/17 09:47:18;;;;;;;;;8.33;7.67;;;;;18.28;47.04;101691.13;4879167;29;45516;-62
2021/10/17 09:49:45;;;;;;;;;8.67;8.67;;;;;18.28;47.10;101688.44;4878574;29;45480;-59
2021/10/17 09:52:18;;;;;;;;;4.67;4.33;;;;;18.29;47.11;101684.91;4879285;29;45427;-61
2021/10/17 09:54:49;;;;;;;;;5.67;5.67;;;;;18.28;47.20;101678.69;4878818;29;46347;-58
2021/10/17 09:57:15;;;;;;;;;9.00;9.00;;;;;18.28;47.13;101689.34;4878827;29;45375;-58
2021/10/17 09:59:41;;;;;;;;;10.00;10.00;;;;;18.29;47.19;101690.25;4892833;28;45261;-58
2021/10/17 10:02:12;;;;;;;;;11.67;11.67;;;;;18.30;46.99;101686.69;4938006;28;45294;-58
2021/10/17 10:04:39;;;;;;;;;11.00;9.00;;;;;18.29;47.15;101684.91;4937855;28;47026;-59
2021/10/17 10:07:07;;;;;;;;;11.67;10.33;;;;;18.30;47.43;101685.81;4937664;28;45246;-60
2021/10/17 10:09:33;;;;;;;;;8.67;7.67;;;;;18.28;47.57;101686.69;4938027;28;45480;-64
2021/10/17 10:12:02;;;;;;;;;8.67;8.00;;;;;18.29;47.56;101690.25;4938168;28;45336;-59
2021/10/17 10:14:28;;;;;;;;;7.67;7.67;;;;;18.27;47.73;101687.56;4937780;28;46083;-58
2021/10/17 10:16:57;;;;;;;;;13.67;12.00;;;;;18.29;47.66;101687.59;4937688;28;45516;-59
2021/10/17 10:19:23;;;;;;;;;13.00;10.00;;;;;18.29;47.82;101690.25;4938045;28;45428;-58
2021/10/17 10:21:49;;;;;;;;;12.33;9.00;;;;;18.29;47.66;101690.25;4937823;28;45511;-60
2021/10/17 10:24:17;;;;;;;;;9.00;9.00;;;;;18.30;47.93;101692.00;4937585;28;45429;-60
2021/10/17 10:26:43;;;;;;;;;11.00;8.00;;;;;18.30;47.64;101691.13;4937838;28;45430;-59
2021/10/17 10:29:08;;;;;;;;;7.67;7.67;;;;;18.30;47.63;101692.00;4937970;28;45208;-63
2021/10/17 10:31:40;;;;;;;;;9.33;9.33;;;;;18.30;47.66;101683.16;4937930;28;45361;-60
2021/10/17 10:34:06;;;;;;;;;9.67;9.00;;;;;18.30;47.81;101685.81;4937453;28;46714;-61
2021/10/17 10:36:45;;;;;;;;;9.33;9.00;;;;;18.30;47.65;101683.16;4937436;28;45317;-61
2021/10/17 10:39:13;;;;;;;;;8.67;8.67;;;;;18.30;47.71;101686.69;4937537;28;45370;-58
2021/10/17 10:42:13;;;;;;;;;10.00;8.67;;;;;18.29;47.63;101684.91;4938767;28;45382;-58
2021/10/17 10:44:41;;;;;;;;;9.67;7.33;;;;;18.30;47.73;101680.50;4940231;28;46865;-58
2021/10/17 10:47:26;;;;;;;;;8.67;8.67;;;;;18.30;47.73;101684.00;4940884;28;45489;-58
2021/10/17 10:49:56;;;;;;;;;9.00;9.00;;;;;18.30;47.62;101684.00;4940785;28;45445;-58
2021/10/17 10:52:24;;;;;;;;;11.00;9.00;;;;;18.30;47.49;101678.69;4941317;28;45655;-57
2021/10/17 10:54:54;;;;;;;;;8.33;8.33;;;;;18.31;47.81;101683.16;4940451;28;46153;-58
2021/10/17 10:57:24;;;;;;;;;10.00;9.00;;;;;18.30;47.66;101681.34;4940656;28;45492;-57
2021/10/17 11:00:08;;;;;;;;;10.00;8.00;;;;;18.32;47.62;101684.03;4940689;28;45159;-58
2021/10/17 11:02:36;;;;;;;;;10.33;8.67;;;;;18.31;47.72;101679.59;4940755;28;45366;-58
2021/10/17 11:05:04;;;;;;;;;10.00;10.00;;;;;18.31;47.82;101667.19;4940465;28;45459;-58
2021/10/17 11:07:32;;;;;;;;;7.67;7.67;;;;;18.32;47.74;101674.25;4940308;28;45342;-57
2021/10/17 11:10:23;;;;;;;;;9.00;8.00;;;;;18.31;47.66;101676.94;4940342;28;45378;-59
2021/10/17 11:12:58;;;;;;;;;11.00;8.67;;;;;18.32;47.80;101679.56;4940892;28;45398;-58
2021/10/17 11:15:27;;;;;;;;;10.67;10.33;;;;;18.32;47.55;101674.25;4940385;28;46230;-58
2021/10/17 11:17:53;;;;;;;;;9.00;8.00;;;;;18.31;47.68;101677.81;4939971;28;45303;-60